sensor_id;sensor_type;location;lat;lon;timestamp;P1;durP1;ratioP1;P2;durP2;ratioP2
56043;SDS011;41912;51.022;3.664;2023-04-12T00:02:12;5.63;;;1.40;;
56043;SDS011;41912;51.022;3.664;2023-04-12T00:04:38;8.07;;;1.80;;
56043;SDS011;41912;51.022;3.664;2023-04-12T00:07:04;2.58;;;1.30;;
56043;SDS011;41912;51.022;3.664;2023-04-12T00:09:30;6.80;;;1.45;;
56043;SDS011;41912;51.022;3.664;2023-04-12T00:11:58;7.45;;;1.00;;
56043;SDS011;41912;51.022;3.664;2023-04-12T00:14:24;6.88;;;1.25;;
56043;SDS011;41912;51.022;3.664;2023-04-12T00:16:50;6.13;;;1.67;;
56043;SDS011;41912;51.022;3.664;2023-04-12T00:19:16;8.23;;;1.50;;
56043;SDS011;41912;51.022;3.664;2023-04-12T00:21:44;5.22;;;1.30;;
56043;SDS011;41912;51.022;3.664;2023-04-12T00:24:10;6.15;;;1.27;;
56043;SDS011;41912;51.022;3.664;2023-04-12T00:26:36;4.90;;;1.38;;
56043;SDS011;41912;51.022;3.664;2023-04-12T00:29:01;6.18;;;1.88;;
56043;SDS011;41912;51.022;3.664;2023-04-12T00:31:27;3.97;;;1.30;;
56043;SDS011;41912;51.022;3.664;2023-04-12T00:33:53;5.55;;;1.60;;
56043;SDS011;41912;51.022;3.664;2023-04-12T00:36:19;2.78;;;1.10;;
56043;SDS011;41912;51.022;3.664;2023-04-12T00:38:45;4.97;;;1.65;;
56043;SDS011;41912;51.022;3.664;2023-04-12T00:41:11;5.43;;;1.48;;
56043;SDS011;41912;51.022;3.664;2023-04-12T00:43:38;3.92;;;1.75;;
56043;SDS011;41912;51.022;3.664;2023-04-12T00:46:05;6.57;;;1.85;;
56043;SDS011;41912;51.022;3.664;2023-04-12T00:48:31;4.22;;;1.60;;
56043;SDS011;41912;51.022;3.664;2023-04-12T00:50:57;5.22;;;1.38;;
56043;SDS011;41912;51.022;3.664;2023-04-12T00:53:24;5.55;;;1.70;;
56043;SDS011;41912;51.022;3.664;2023-04-12T00:55:51;5.13;;;1.55;;
56043;SDS011;41912;51.022;3.664;2023-04-12T00:58:18;4.32;;;1.10;;
56043;SDS011;41912;51.022;3.664;2023-04-12T01:00:46;4.05;;;1.30;;
56043;SDS011;41912;51.022;3.664;2023-04-12T01:03:17;5.03;;;1.17;;
56043;SDS011;41912;51.022;3.664;2023-04-12T01:11:34;4.80;;;1.33;;
56043;SDS011;41912;51.022;3.664;2023-04-12T01:14:09;5.15;;;1.30;;
56043;SDS011;41912;51.022;3.664;2023-04-12T01:16:49;6.55;;;1.45;;
56043;SDS011;41912;51.022;3.664;2023-04-12T01:24:53;5.35;;;1.38;;
56043;SDS011;41912;51.022;3.664;2023-04-12T01:27:31;2.83;;;1.13;;
56043;SDS011;41912;51.022;3.664;2023-04-12T01:30:14;6.18;;;1.33;;
56043;SDS011;41912;51.022;3.664;2023-04-12T01:32:42;6.25;;;1.52;;
56043;SDS011;41912;51.022;3.664;2023-04-12T01:35:11;7.25;;;1.30;;
56043;SDS011;41912;51.022;3.664;2023-04-12T01:37:38;5.88;;;1.33;;
56043;SDS011;41912;51.022;3.664;2023-04-12T01:40:05;4.82;;;1.50;;
56043;SDS011;41912;51.022;3.664;2023-04-12T01:42:33;7.28;;;1.23;;
56043;SDS011;41912;51.022;3.664;2023-04-12T01:44:59;4.75;;;1.55;;
56043;SDS011;41912;51.022;3.664;2023-04-12T01:47:25;4.82;;;1.40;;
56043;SDS011;41912;51.022;3.664;2023-04-12T01:52:45;4.30;;;1.58;;
56043;SDS011;41912;51.022;3.664;2023-04-12T01:55:17;2.33;;;1.20;;
56043;SDS011;41912;51.022;3.664;2023-04-12T01:57:45;4.97;;;1.80;;
56043;SDS011;41912;51.022;3.664;2023-04-12T02:00:13;4.22;;;1.50;;
56043;SDS011;41912;51.022;3.664;2023-04-12T02:02:40;3.60;;;1.27;;
56043;SDS011;41912;51.022;3.664;2023-04-12T02:05:07;8.27;;;1.80;;
56043;SDS011;41912;51.022;3.664;2023-04-12T02:07:34;3.22;;;1.58;;
56043;SDS011;41912;51.022;3.664;2023-04-12T02:10:00;4.90;;;1.40;;
56043;SDS011;41912;51.022;3.664;2023-04-12T02:12:25;2.28;;;1.65;;
56043;SDS011;41912;51.022;3.664;2023-04-12T02:14:51;3.83;;;1.65;;
56043;SDS011;41912;51.022;3.664;2023-04-12T02:17:17;2.63;;;1.25;;
56043;SDS011;41912;51.022;3.664;2023-04-12T02:19:43;4.32;;;1.40;;
56043;SDS011;41912;51.022;3.664;2023-04-12T02:22:09;5.63;;;1.65;;
56043;SDS011;41912;51.022;3.664;2023-04-12T02:24:35;3.15;;;1.48;;
56043;SDS011;41912;51.022;3.664;2023-04-12T02:27:00;4.20;;;1.27;;
56043;SDS011;41912;51.022;3.664;2023-04-12T02:29:26;5.00;;;1.50;;
56043;SDS011;41912;51.022;3.664;2023-04-12T02:31:52;4.82;;;1.50;;
56043;SDS011;41912;51.022;3.664;2023-04-12T02:34:17;3.45;;;1.55;;
56043;SDS011;41912;51.022;3.664;2023-04-12T02:36:48;3.55;;;1.30;;
56043;SDS011;41912;51.022;3.664;2023-04-12T02:39:14;3.22;;;1.67;;
56043;SDS011;41912;51.022;3.664;2023-04-12T02:41:43;6.82;;;1.50;;
56043;SDS011;41912;51.022;3.664;2023-04-12T02:44:09;3.35;;;1.10;;
56043;SDS011;41912;51.022;3.664;2023-04-12T02:46:35;4.38;;;1.30;;
56043;SDS011;41912;51.022;3.664;2023-04-12T02:49:01;4.22;;;1.30;;
56043;SDS011;41912;51.022;3.664;2023-04-12T02:51:26;7.25;;;1.67;;
56043;SDS011;41912;51.022;3.664;2023-04-12T02:53:52;3.58;;;1.23;;
56043;SDS011;41912;51.022;3.664;2023-04-12T02:56:18;3.58;;;1.20;;
56043;SDS011;41912;51.022;3.664;2023-04-12T02:58:45;3.42;;;1.20;;
56043;SDS011;41912;51.022;3.664;2023-04-12T03:01:11;6.47;;;1.40;;
56043;SDS011;41912;51.022;3.664;2023-04-12T03:03:38;5.68;;;1.67;;
56043;SDS011;41912;51.022;3.664;2023-04-12T03:06:04;7.53;;;1.55;;
56043;SDS011;41912;51.022;3.664;2023-04-12T03:08:30;4.05;;;1.20;;
56043;SDS011;41912;51.022;3.664;2023-04-12T03:10:56;3.38;;;1.15;;
56043;SDS011;41912;51.022;3.664;2023-04-12T03:13:22;4.78;;;1.80;;
56043;SDS011;41912;51.022;3.664;2023-04-12T03:15:47;5.78;;;1.65;;
56043;SDS011;41912;51.022;3.664;2023-04-12T03:18:13;6.75;;;1.70;;
56043;SDS011;41912;51.022;3.664;2023-04-12T03:20:40;8.32;;;2.13;;
56043;SDS011;41912;51.022;3.664;2023-04-12T03:23:07;3.17;;;1.70;;
56043;SDS011;41912;51.022;3.664;2023-04-12T03:25:33;4.18;;;2.10;;
56043;SDS011;41912;51.022;3.664;2023-04-12T03:28:00;5.72;;;2.03;;
56043;SDS011;41912;51.022;3.664;2023-04-12T03:30:26;3.65;;;2.38;;
56043;SDS011;41912;51.022;3.664;2023-04-12T03:32:52;4.32;;;2.22;;
56043;SDS011;41912;51.022;3.664;2023-04-12T03:35:18;3.80;;;2.08;;
56043;SDS011;41912;51.022;3.664;2023-04-12T03:37:43;3.40;;;2.20;;
56043;SDS011;41912;51.022;3.664;2023-04-12T03:40:09;4.20;;;2.50;;
56043;SDS011;41912;51.022;3.664;2023-04-12T03:42:35;8.48;;;2.58;;
56043;SDS011;41912;51.022;3.664;2023-04-12T03:45:01;4.93;;;2.60;;
56043;SDS011;41912;51.022;3.664;2023-04-12T03:47:27;5.22;;;2.28;;
56043;SDS011;41912;51.022;3.664;2023-04-12T03:49:56;4.90;;;2.90;;
56043;SDS011;41912;51.022;3.664;2023-04-12T03:52:31;5.00;;;2.35;;
56043;SDS011;41912;51.022;3.664;2023-04-12T03:54:57;4.43;;;2.10;;
56043;SDS011;41912;51.022;3.664;2023-04-12T03:57:23;6.18;;;2.15;;
56043;SDS011;41912;51.022;3.664;2023-04-12T03:59:48;3.63;;;2.00;;
56043;SDS011;41912;51.022;3.664;2023-04-12T04:02:14;3.47;;;1.83;;
56043;SDS011;41912;51.022;3.664;2023-04-12T04:04:40;7.72;;;2.20;;
56043;SDS011;41912;51.022;3.664;2023-04-12T04:07:05;3.83;;;1.75;;
56043;SDS011;41912;51.022;3.664;2023-04-12T04:09:32;3.88;;;1.90;;
56043;SDS011;41912;51.022;3.664;2023-04-12T04:11:58;5.43;;;1.83;;
56043;SDS011;41912;51.022;3.664;2023-04-12T04:14:25;6.53;;;2.33;;
56043;SDS011;41912;51.022;3.664;2023-04-12T04:16:51;6.95;;;2.20;;
56043;SDS011;41912;51.022;3.664;2023-04-12T04:19:17;8.35;;;1.98;;
56043;SDS011;41912;51.022;3.664;2023-04-12T04:21:43;8.90;;;2.10;;
56043;SDS011;41912;51.022;3.664;2023-04-12T04:24:09;5.38;;;2.38;;
56043;SDS011;41912;51.022;3.664;2023-04-12T04:26:35;7.53;;;2.08;;
56043;SDS011;41912;51.022;3.664;2023-04-12T04:29:02;5.32;;;2.40;;
56043;SDS011;41912;51.022;3.664;2023-04-12T04:31:29;9.48;;;3.28;;
56043;SDS011;41912;51.022;3.664;2023-04-12T04:34:04;6.13;;;2.67;;
56043;SDS011;41912;51.022;3.664;2023-04-12T04:36:34;5.50;;;2.13;;
56043;SDS011;41912;51.022;3.664;2023-04-12T04:39:01;4.93;;;1.90;;
56043;SDS011;41912;51.022;3.664;2023-04-12T04:41:28;5.85;;;1.98;;
56043;SDS011;41912;51.022;3.664;2023-04-12T04:43:58;10.73;;;2.30;;
56043;SDS011;41912;51.022;3.664;2023-04-12T04:46:24;9.00;;;1.80;;
56043;SDS011;41912;51.022;3.664;2023-04-12T04:48:50;11.25;;;2.88;;
56043;SDS011;41912;51.022;3.664;2023-04-12T04:51:16;8.00;;;1.92;;
56043;SDS011;41912;51.022;3.664;2023-04-12T04:53:42;8.48;;;2.28;;
56043;SDS011;41912;51.022;3.664;2023-04-12T04:56:08;7.90;;;2.15;;
56043;SDS011;41912;51.022;3.664;2023-04-12T04:58:34;7.05;;;1.70;;
56043;SDS011;41912;51.022;3.664;2023-04-12T05:01:00;11.07;;;2.30;;
56043;SDS011;41912;51.022;3.664;2023-04-12T05:03:26;15.80;;;2.38;;
56043;SDS011;41912;51.022;3.664;2023-04-12T05:05:54;8.63;;;1.70;;
56043;SDS011;41912;51.022;3.664;2023-04-12T05:08:23;11.18;;;1.75;;
56043;SDS011;41912;51.022;3.664;2023-04-12T05:10:55;10.15;;;2.83;;
56043;SDS011;41912;51.022;3.664;2023-04-12T05:13:21;12.40;;;2.63;;
56043;SDS011;41912;51.022;3.664;2023-04-12T05:15:47;12.45;;;2.30;;
56043;SDS011;41912;51.022;3.664;2023-04-12T05:18:13;10.18;;;1.98;;
56043;SDS011;41912;51.022;3.664;2023-04-12T05:20:39;12.90;;;2.00;;
56043;SDS011;41912;51.022;3.664;2023-04-12T05:23:05;18.08;;;3.05;;
56043;SDS011;41912;51.022;3.664;2023-04-12T05:25:31;16.65;;;1.75;;
56043;SDS011;41912;51.022;3.664;2023-04-12T05:27:57;15.00;;;2.95;;
56043;SDS011;41912;51.022;3.664;2023-04-12T05:30:23;14.00;;;1.95;;
56043;SDS011;41912;51.022;3.664;2023-04-12T05:32:48;15.40;;;2.17;;
56043;SDS011;41912;51.022;3.664;2023-04-12T05:35:14;10.27;;;2.00;;
56043;SDS011;41912;51.022;3.664;2023-04-12T05:37:40;9.75;;;1.60;;
56043;SDS011;41912;51.022;3.664;2023-04-12T05:40:05;11.82;;;2.38;;
56043;SDS011;41912;51.022;3.664;2023-04-12T05:42:33;12.15;;;1.70;;
56043;SDS011;41912;51.022;3.664;2023-04-12T05:45:05;11.40;;;1.45;;
56043;SDS011;41912;51.022;3.664;2023-04-12T05:47:31;15.98;;;2.58;;
56043;SDS011;41912;51.022;3.664;2023-04-12T05:49:56;7.32;;;1.67;;
56043;SDS011;41912;51.022;3.664;2023-04-12T05:52:22;18.00;;;2.33;;
56043;SDS011;41912;51.022;3.664;2023-04-12T05:54:48;16.23;;;2.30;;
56043;SDS011;41912;51.022;3.664;2023-04-12T05:57:13;15.20;;;3.10;;
56043;SDS011;41912;51.022;3.664;2023-04-12T05:59:41;15.65;;;3.67;;
56043;SDS011;41912;51.022;3.664;2023-04-12T06:02:06;16.70;;;4.03;;
56043;SDS011;41912;51.022;3.664;2023-04-12T06:04:33;16.05;;;3.30;;
56043;SDS011;41912;51.022;3.664;2023-04-12T06:06:58;14.52;;;3.08;;
56043;SDS011;41912;51.022;3.664;2023-04-12T06:09:25;13.10;;;3.40;;
56043;SDS011;41912;51.022;3.664;2023-04-12T06:11:51;16.65;;;3.47;;
56043;SDS011;41912;51.022;3.664;2023-04-12T06:14:17;11.05;;;2.75;;
56043;SDS011;41912;51.022;3.664;2023-04-12T06:16:43;11.65;;;3.80;;
56043;SDS011;41912;51.022;3.664;2023-04-12T06:19:08;16.55;;;3.33;;
56043;SDS011;41912;51.022;3.664;2023-04-12T06:21:35;10.98;;;2.72;;
56043;SDS011;41912;51.022;3.664;2023-04-12T06:24:00;17.00;;;3.47;;
56043;SDS011;41912;51.022;3.664;2023-04-12T06:26:26;17.83;;;2.85;;
56043;SDS011;41912;51.022;3.664;2023-04-12T06:28:51;17.60;;;3.33;;
56043;SDS011;41912;51.022;3.664;2023-04-12T06:31:17;18.67;;;2.53;;
56043;SDS011;41912;51.022;3.664;2023-04-12T06:33:43;21.50;;;4.63;;
56043;SDS011;41912;51.022;3.664;2023-04-12T06:36:08;14.20;;;3.78;;
56043;SDS011;41912;51.022;3.664;2023-04-12T06:38:35;12.23;;;3.70;;
56043;SDS011;41912;51.022;3.664;2023-04-12T06:41:01;18.83;;;5.00;;
56043;SDS011;41912;51.022;3.664;2023-04-12T06:43:26;20.30;;;4.10;;
56043;SDS011;41912;51.022;3.664;2023-04-12T06:45:52;14.23;;;4.03;;
56043;SDS011;41912;51.022;3.664;2023-04-12T06:48:18;20.35;;;4.22;;
56043;SDS011;41912;51.022;3.664;2023-04-12T06:50:44;16.95;;;3.85;;
56043;SDS011;41912;51.022;3.664;2023-04-12T06:53:09;16.58;;;4.15;;
56043;SDS011;41912;51.022;3.664;2023-04-12T06:55:37;20.15;;;3.45;;
56043;SDS011;41912;51.022;3.664;2023-04-12T06:58:03;16.33;;;3.88;;
56043;SDS011;41912;51.022;3.664;2023-04-12T07:00:28;20.27;;;4.15;;
56043;SDS011;41912;51.022;3.664;2023-04-12T07:02:54;18.73;;;3.95;;
56043;SDS011;41912;51.022;3.664;2023-04-12T07:05:20;20.35;;;3.78;;
56043;SDS011;41912;51.022;3.664;2023-04-12T07:07:45;21.77;;;3.70;;
56043;SDS011;41912;51.022;3.664;2023-04-12T07:10:11;22.17;;;3.47;;
56043;SDS011;41912;51.022;3.664;2023-04-12T07:12:37;13.95;;;2.55;;
56043;SDS011;41912;51.022;3.664;2023-04-12T07:15:02;14.55;;;3.10;;
56043;SDS011;41912;51.022;3.664;2023-04-12T07:17:29;13.98;;;2.25;;
56043;SDS011;41912;51.022;3.664;2023-04-12T07:19:55;16.60;;;2.78;;
56043;SDS011;41912;51.022;3.664;2023-04-12T07:22:21;11.90;;;2.50;;
56043;SDS011;41912;51.022;3.664;2023-04-12T07:24:47;14.07;;;2.42;;
56043;SDS011;41912;51.022;3.664;2023-04-12T07:27:15;12.25;;;2.75;;
56043;SDS011;41912;51.022;3.664;2023-04-12T07:29:40;15.23;;;2.42;;
56043;SDS011;41912;51.022;3.664;2023-04-12T07:32:07;12.20;;;2.63;;
56043;SDS011;41912;51.022;3.664;2023-04-12T07:34:34;13.50;;;3.00;;
56043;SDS011;41912;51.022;3.664;2023-04-12T07:37:01;18.73;;;2.42;;
56043;SDS011;41912;51.022;3.664;2023-04-12T07:39:26;12.05;;;2.40;;
56043;SDS011;41912;51.022;3.664;2023-04-12T07:41:53;12.40;;;2.40;;
56043;SDS011;41912;51.022;3.664;2023-04-12T07:44:19;12.20;;;2.00;;
56043;SDS011;41912;51.022;3.664;2023-04-12T07:46:45;10.98;;;2.05;;
56043;SDS011;41912;51.022;3.664;2023-04-12T07:49:11;11.65;;;2.05;;
56043;SDS011;41912;51.022;3.664;2023-04-12T07:51:37;9.75;;;1.80;;
56043;SDS011;41912;51.022;3.664;2023-04-12T07:54:03;10.82;;;1.73;;
56043;SDS011;41912;51.022;3.664;2023-04-12T07:56:28;7.43;;;2.03;;
56043;SDS011;41912;51.022;3.664;2023-04-12T07:58:54;10.05;;;2.45;;
56043;SDS011;41912;51.022;3.664;2023-04-12T08:01:20;14.10;;;2.20;;
56043;SDS011;41912;51.022;3.664;2023-04-12T08:03:45;16.90;;;2.47;;
56043;SDS011;41912;51.022;3.664;2023-04-12T08:06:11;10.85;;;1.67;;
56043;SDS011;41912;51.022;3.664;2023-04-12T08:08:36;9.80;;;2.53;;
56043;SDS011;41912;51.022;3.664;2023-04-12T08:11:02;12.20;;;2.45;;
56043;SDS011;41912;51.022;3.664;2023-04-12T08:13:30;8.45;;;1.60;;
56043;SDS011;41912;51.022;3.664;2023-04-12T08:15:56;8.98;;;1.83;;
56043;SDS011;41912;51.022;3.664;2023-04-12T08:18:22;12.07;;;2.05;;
56043;SDS011;41912;51.022;3.664;2023-04-12T08:20:47;10.75;;;1.70;;
56043;SDS011;41912;51.022;3.664;2023-04-12T08:23:13;12.68;;;2.60;;
56043;SDS011;41912;51.022;3.664;2023-04-12T08:25:39;17.70;;;2.58;;
56043;SDS011;41912;51.022;3.664;2023-04-12T08:28:05;14.65;;;2.22;;
56043;SDS011;41912;51.022;3.664;2023-04-12T08:30:32;16.77;;;2.72;;
56043;SDS011;41912;51.022;3.664;2023-04-12T08:32:58;12.07;;;2.78;;
56043;SDS011;41912;51.022;3.664;2023-04-12T08:35:23;9.32;;;2.50;;
56043;SDS011;41912;51.022;3.664;2023-04-12T08:37:49;13.57;;;2.67;;
56043;SDS011;41912;51.022;3.664;2023-04-12T08:40:15;13.23;;;2.40;;
56043;SDS011;41912;51.022;3.664;2023-04-12T08:42:41;15.27;;;2.70;;
56043;SDS011;41912;51.022;3.664;2023-04-12T08:45:08;16.80;;;2.80;;
56043;SDS011;41912;51.022;3.664;2023-04-12T08:47:38;15.98;;;3.13;;
56043;SDS011;41912;51.022;3.664;2023-04-12T08:50:05;21.38;;;3.33;;
56043;SDS011;41912;51.022;3.664;2023-04-12T08:52:33;23.42;;;3.78;;
56043;SDS011;41912;51.022;3.664;2023-04-12T08:55:03;18.35;;;3.55;;
56043;SDS011;41912;51.022;3.664;2023-04-12T08:57:30;13.35;;;2.53;;
56043;SDS011;41912;51.022;3.664;2023-04-12T08:59:59;17.52;;;4.35;;
56043;SDS011;41912;51.022;3.664;2023-04-12T09:02:26;19.38;;;4.32;;
56043;SDS011;41912;51.022;3.664;2023-04-12T09:04:52;19.05;;;3.25;;
56043;SDS011;41912;51.022;3.664;2023-04-12T09:07:18;21.25;;;3.97;;
56043;SDS011;41912;51.022;3.664;2023-04-12T09:09:47;20.70;;;3.38;;
56043;SDS011;41912;51.022;3.664;2023-04-12T09:12:14;17.25;;;3.63;;
56043;SDS011;41912;51.022;3.664;2023-04-12T09:14:40;10.60;;;2.78;;
56043;SDS011;41912;51.022;3.664;2023-04-12T09:19:51;19.15;;;3.03;;
56043;SDS011;41912;51.022;3.664;2023-04-12T09:22:17;14.77;;;3.15;;
56043;SDS011;41912;51.022;3.664;2023-04-12T09:24:47;20.80;;;3.35;;
56043;SDS011;41912;51.022;3.664;2023-04-12T09:27:14;16.40;;;2.63;;
56043;SDS011;41912;51.022;3.664;2023-04-12T09:29:40;19.05;;;3.67;;
56043;SDS011;41912;51.022;3.664;2023-04-12T09:32:06;15.27;;;3.00;;
56043;SDS011;41912;51.022;3.664;2023-04-12T09:34:33;16.73;;;2.55;;
56043;SDS011;41912;51.022;3.664;2023-04-12T09:37:12;13.02;;;2.63;;
56043;SDS011;41912;51.022;3.664;2023-04-12T09:39:41;17.42;;;3.25;;
56043;SDS011;41912;51.022;3.664;2023-04-12T09:42:08;24.33;;;6.25;;
56043;SDS011;41912;51.022;3.664;2023-04-12T09:44:35;19.00;;;3.63;;
56043;SDS011;41912;51.022;3.664;2023-04-12T09:47:02;18.33;;;3.20;;
56043;SDS011;41912;51.022;3.664;2023-04-12T09:49:40;20.63;;;3.67;;
56043;SDS011;41912;51.022;3.664;2023-04-12T09:52:08;14.68;;;3.03;;
56043;SDS011;41912;51.022;3.664;2023-04-12T09:54:44;19.98;;;3.65;;
56043;SDS011;41912;51.022;3.664;2023-04-12T09:57:12;20.30;;;4.47;;
56043;SDS011;41912;51.022;3.664;2023-04-12T09:59:43;22.50;;;4.07;;
56043;SDS011;41912;51.022;3.664;2023-04-12T10:02:13;18.38;;;3.22;;
56043;SDS011;41912;51.022;3.664;2023-04-12T10:04:42;17.42;;;2.65;;
56043;SDS011;41912;51.022;3.664;2023-04-12T10:07:08;13.57;;;2.33;;
56043;SDS011;41912;51.022;3.664;2023-04-12T10:09:37;19.25;;;2.75;;
56043;SDS011;41912;51.022;3.664;2023-04-12T10:12:04;18.48;;;3.00;;
56043;SDS011;41912;51.022;3.664;2023-04-12T10:14:30;12.85;;;2.33;;
56043;SDS011;41912;51.022;3.664;2023-04-12T10:16:59;16.40;;;2.63;;
56043;SDS011;41912;51.022;3.664;2023-04-12T10:19:28;25.58;;;2.92;;
56043;SDS011;41912;51.022;3.664;2023-04-12T10:21:55;19.38;;;2.70;;
56043;SDS011;41912;51.022;3.664;2023-04-12T10:24:21;12.55;;;2.40;;
56043;SDS011;41912;51.022;3.664;2023-04-12T10:26:52;9.77;;;2.08;;
56043;SDS011;41912;51.022;3.664;2023-04-12T10:31:54;14.05;;;2.88;;
56043;SDS011;41912;51.022;3.664;2023-04-12T10:34:22;10.65;;;2.13;;
56043;SDS011;41912;51.022;3.664;2023-04-12T10:36:51;11.63;;;3.10;;
56043;SDS011;41912;51.022;3.664;2023-04-12T10:42:16;12.23;;;2.15;;
56043;SDS011;41912;51.022;3.664;2023-04-12T10:44:43;10.43;;;2.08;;
56043;SDS011;41912;51.022;3.664;2023-04-12T10:47:09;13.82;;;1.88;;
56043;SDS011;41912;51.022;3.664;2023-04-12T10:49:35;10.52;;;1.85;;
56043;SDS011;41912;51.022;3.664;2023-04-12T10:54:33;10.88;;;1.55;;
56043;SDS011;41912;51.022;3.664;2023-04-12T10:56:59;23.40;;;3.75;;
56043;SDS011;41912;51.022;3.664;2023-04-12T10:59:49;6.38;;;1.10;;
56043;SDS011;41912;51.022;3.664;2023-04-12T11:02:20;2.55;;;1.00;;
56043;SDS011;41912;51.022;3.664;2023-04-12T11:05:05;4.28;;;0.90;;
56043;SDS011;41912;51.022;3.664;2023-04-12T11:07:41;6.10;;;1.33;;
56043;SDS011;41912;51.022;3.664;2023-04-12T11:10:11;3.50;;;0.88;;
56043;SDS011;41912;51.022;3.664;2023-04-12T11:12:39;3.38;;;0.68;;
56043;SDS011;41912;51.022;3.664;2023-04-12T11:15:05;8.63;;;1.13;;
56043;SDS011;41912;51.022;3.664;2023-04-12T11:17:36;4.97;;;0.93;;
56043;SDS011;41912;51.022;3.664;2023-04-12T11:20:01;7.50;;;1.90;;
56043;SDS011;41912;51.022;3.664;2023-04-12T11:22:30;10.05;;;1.95;;
56043;SDS011;41912;51.022;3.664;2023-04-12T11:24:59;6.50;;;1.75;;
56043;SDS011;41912;51.022;3.664;2023-04-12T11:27:27;6.55;;;1.50;;
56043;SDS011;41912;51.022;3.664;2023-04-12T11:29:54;4.95;;;1.08;;
56043;SDS011;41912;51.022;3.664;2023-04-12T11:32:22;8.05;;;1.02;;
56043;SDS011;41912;51.022;3.664;2023-04-12T11:34:51;6.53;;;1.00;;
56043;SDS011;41912;51.022;3.664;2023-04-12T11:37:18;6.70;;;1.15;;
56043;SDS011;41912;51.022;3.664;2023-04-12T11:39:44;4.97;;;0.90;;
56043;SDS011;41912;51.022;3.664;2023-04-12T11:42:15;7.88;;;1.17;;
56043;SDS011;41912;51.022;3.664;2023-04-12T11:44:43;4.90;;;1.10;;
56043;SDS011;41912;51.022;3.664;2023-04-12T11:47:13;4.90;;;0.82;;
56043;SDS011;41912;51.022;3.664;2023-04-12T11:49:44;4.93;;;1.20;;
56043;SDS011;41912;51.022;3.664;2023-04-12T11:52:15;4.03;;;1.20;;
56043;SDS011;41912;51.022;3.664;2023-04-12T11:54:50;4.05;;;0.95;;
56043;SDS011;41912;51.022;3.664;2023-04-12T11:57:20;4.40;;;1.17;;
56043;SDS011;41912;51.022;3.664;2023-04-12T11:59:46;6.63;;;1.20;;
56043;SDS011;41912;51.022;3.664;2023-04-12T12:02:14;5.43;;;1.20;;
56043;SDS011;41912;51.022;3.664;2023-04-12T12:04:42;8.48;;;1.30;;
56043;SDS011;41912;51.022;3.664;2023-04-12T12:07:11;10.07;;;1.25;;
56043;SDS011;41912;51.022;3.664;2023-04-12T12:09:38;6.88;;;1.30;;
56043;SDS011;41912;51.022;3.664;2023-04-12T12:12:05;8.27;;;1.38;;
56043;SDS011;41912;51.022;3.664;2023-04-12T12:14:32;3.88;;;1.17;;
56043;SDS011;41912;51.022;3.664;2023-04-12T12:17:02;8.27;;;1.17;;
56043;SDS011;41912;51.022;3.664;2023-04-12T12:19:38;4.82;;;0.90;;
56043;SDS011;41912;51.022;3.664;2023-04-12T12:22:12;7.43;;;1.52;;
56043;SDS011;41912;51.022;3.664;2023-04-12T12:24:46;4.32;;;1.20;;
56043;SDS011;41912;51.022;3.664;2023-04-12T12:27:35;4.95;;;1.75;;
56043;SDS011;41912;51.022;3.664;2023-04-12T12:30:02;5.82;;;0.95;;
56043;SDS011;41912;51.022;3.664;2023-04-12T12:32:35;2.15;;;0.73;;
56043;SDS011;41912;51.022;3.664;2023-04-12T12:35:06;5.97;;;1.15;;
56043;SDS011;41912;51.022;3.664;2023-04-12T12:37:33;5.93;;;0.70;;
56043;SDS011;41912;51.022;3.664;2023-04-12T12:42:48;3.88;;;0.68;;
56043;SDS011;41912;51.022;3.664;2023-04-12T12:45:16;2.42;;;0.63;;
56043;SDS011;41912;51.022;3.664;2023-04-12T12:47:53;2.40;;;0.60;;
56043;SDS011;41912;51.022;3.664;2023-04-12T12:50:20;7.20;;;1.10;;
56043;SDS011;41912;51.022;3.664;2023-04-12T12:52:48;3.47;;;0.98;;
56043;SDS011;41912;51.022;3.664;2023-04-12T12:55:14;4.07;;;0.88;;
56043;SDS011;41912;51.022;3.664;2023-04-12T12:57:42;6.45;;;1.05;;
56043;SDS011;41912;51.022;3.664;2023-04-12T13:00:08;6.63;;;1.90;;
56043;SDS011;41912;51.022;3.664;2023-04-12T13:02:37;4.00;;;1.52;;
56043;SDS011;41912;51.022;3.664;2023-04-12T13:05:06;6.65;;;1.17;;
56043;SDS011;41912;51.022;3.664;2023-04-12T13:07:32;7.68;;;1.15;;
56043;SDS011;41912;51.022;3.664;2023-04-12T13:09:58;4.78;;;1.08;;
56043;SDS011;41912;51.022;3.664;2023-04-12T13:12:25;5.50;;;1.15;;
56043;SDS011;41912;51.022;3.664;2023-04-12T13:14:51;3.50;;;0.90;;
56043;SDS011;41912;51.022;3.664;2023-04-12T13:17:17;5.18;;;1.25;;
56043;SDS011;41912;51.022;3.664;2023-04-12T13:19:44;7.47;;;0.90;;
56043;SDS011;41912;51.022;3.664;2023-04-12T13:22:10;5.68;;;1.25;;
56043;SDS011;41912;51.022;3.664;2023-04-12T13:24:36;4.60;;;0.93;;
56043;SDS011;41912;51.022;3.664;2023-04-12T13:27:02;8.13;;;1.45;;
56043;SDS011;41912;51.022;3.664;2023-04-12T13:29:28;10.05;;;1.52;;
56043;SDS011;41912;51.022;3.664;2023-04-12T13:31:53;7.82;;;1.23;;
56043;SDS011;41912;51.022;3.664;2023-04-12T13:34:19;7.10;;;1.60;;
56043;SDS011;41912;51.022;3.664;2023-04-12T13:36:45;9.18;;;1.25;;
56043;SDS011;41912;51.022;3.664;2023-04-12T13:39:11;9.25;;;1.80;;
56043;SDS011;41912;51.022;3.664;2023-04-12T13:41:36;13.15;;;1.88;;
56043;SDS011;41912;51.022;3.664;2023-04-12T13:44:02;11.90;;;1.50;;
56043;SDS011;41912;51.022;3.664;2023-04-12T13:46:28;9.50;;;2.42;;
56043;SDS011;41912;51.022;3.664;2023-04-12T13:48:56;10.80;;;1.80;;
56043;SDS011;41912;51.022;3.664;2023-04-12T13:51:25;7.13;;;1.15;;
56043;SDS011;41912;51.022;3.664;2023-04-12T13:53:52;6.40;;;1.52;;
56043;SDS011;41912;51.022;3.664;2023-04-12T13:56:21;8.50;;;1.30;;
56043;SDS011;41912;51.022;3.664;2023-04-12T13:58:47;8.35;;;1.63;;
56043;SDS011;41912;51.022;3.664;2023-04-12T14:01:12;7.93;;;1.50;;
56043;SDS011;41912;51.022;3.664;2023-04-12T14:03:38;8.73;;;1.23;;
56043;SDS011;41912;51.022;3.664;2023-04-12T14:06:05;6.60;;;1.40;;
56043;SDS011;41912;51.022;3.664;2023-04-12T14:08:31;4.38;;;0.70;;
56043;SDS011;41912;51.022;3.664;2023-04-12T14:10:58;11.00;;;1.00;;
56043;SDS011;41912;51.022;3.664;2023-04-12T14:13:25;5.90;;;1.42;;
56043;SDS011;41912;51.022;3.664;2023-04-12T14:15:51;3.22;;;0.80;;
56043;SDS011;41912;51.022;3.664;2023-04-12T14:18:17;7.28;;;1.02;;
56043;SDS011;41912;51.022;3.664;2023-04-12T14:20:43;4.57;;;1.02;;
56043;SDS011;41912;51.022;3.664;2023-04-12T14:23:13;4.88;;;1.13;;
56043;SDS011;41912;51.022;3.664;2023-04-12T14:25:39;11.32;;;2.08;;
56043;SDS011;41912;51.022;3.664;2023-04-12T14:28:05;6.65;;;0.98;;
56043;SDS011;41912;51.022;3.664;2023-04-12T14:30:31;9.63;;;1.30;;
56043;SDS011;41912;51.022;3.664;2023-04-12T14:32:57;6.25;;;1.08;;
56043;SDS011;41912;51.022;3.664;2023-04-12T14:35:22;7.18;;;1.50;;
56043;SDS011;41912;51.022;3.664;2023-04-12T14:37:48;6.72;;;1.50;;
56043;SDS011;41912;51.022;3.664;2023-04-12T14:40:14;9.77;;;1.60;;
56043;SDS011;41912;51.022;3.664;2023-04-12T14:42:41;12.02;;;1.20;;
56043;SDS011;41912;51.022;3.664;2023-04-12T14:45:07;7.50;;;1.10;;
56043;SDS011;41912;51.022;3.664;2023-04-12T14:47:33;9.00;;;1.50;;
56043;SDS011;41912;51.022;3.664;2023-04-12T14:49:59;7.47;;;1.40;;
56043;SDS011;41912;51.022;3.664;2023-04-12T14:52:25;9.60;;;1.10;;
56043;SDS011;41912;51.022;3.664;2023-04-12T14:54:51;9.50;;;2.03;;
56043;SDS011;41912;51.022;3.664;2023-04-12T14:57:17;8.68;;;1.45;;
56043;SDS011;41912;51.022;3.664;2023-04-12T14:59:43;7.10;;;1.15;;
56043;SDS011;41912;51.022;3.664;2023-04-12T15:02:08;5.70;;;0.80;;
56043;SDS011;41912;51.022;3.664;2023-04-12T15:04:34;7.88;;;1.40;;
56043;SDS011;41912;51.022;3.664;2023-04-12T15:06:59;6.32;;;1.00;;
56043;SDS011;41912;51.022;3.664;2023-04-12T15:09:25;4.18;;;0.95;;
56043;SDS011;41912;51.022;3.664;2023-04-12T15:11:51;6.82;;;1.30;;